Time;durP1;ratioP1;P1;durP2;ratioP2;P2;SDS_P1;SDS_P2;PMS_P1;PMS_P2;Temp;Humidity;BMP_temperature;BMP_pressure;BME280_temperature;BME280_humidity;BME280_pressure;Samples;Min_cycle;Max_cycle;Signal;HPM_P1;HPM_P2
2023/06/25 00:01:23;;;;;;;11.80;10.70;;;;;;;18.77;100.00;101933.91;5024141;28;20032;-74
2023/06/25 00:03:50;;;;;;;11.00;9.93;;;;;;;18.71;100.00;101928.53;5026068;28;20496;-74
2023/06/25 00:06:15;;;;;;;11.88;10.68;;;;;;;18.71;100.00;101922.97;5028321;28;20408;-71
2023/06/25 00:08:41;;;;;;;12.05;10.43;;;;;;;18.65;100.00;101919.22;5027860;28;20033;-70
2023/06/25 00:11:06;;;;;;;11.98;10.60;;;;;;;18.66;100.00;101921.78;5024176;28;20049;-70
2023/06/25 00:13:31;;;;;;;11.93;10.63;;;;;;;18.69;100.00;101925.16;5009172;28;20034;-72
2023/06/25 00:15:57;;;;;;;11.90;10.70;;;;;;;18.53;100.00;101922.16;5022012;28;20026;-69
2023/06/25 00:18:25;;;;;;;12.05;10.75;;;;;;;18.41;100.00;101919.50;5026810;28;20079;-71
2023/06/25 00:20:50;;;;;;;12.93;11.70;;;;;;;18.41;100.00;101918.66;5026802;28;20029;-68
2023/06/25 00:23:15;;;;;;;12.77;11.48;;;;;;;18.38;100.00;101914.44;5022784;28;20682;-74
2023/06/25 00:25:40;;;;;;;12.27;11.10;;;;;;;18.41;100.00;101913.94;5026249;28;20068;-74
2023/06/25 00:28:09;;;;;;;13.13;11.82;;;;;;;18.36;100.00;101915.81;5011372;28;20068;-72
2023/06/25 00:30:35;;;;;;;12.10;10.90;;;;;;;18.25;100.00;101914.81;5007986;28;20541;-74
2023/06/25 00:33:01;;;;;;;12.30;10.77;;;;;;;18.14;100.00;101908.25;5006589;28;20112;-71
2023/06/25 00:35:28;;;;;;;12.95;11.65;;;;;;;18.09;100.00;101910.09;5007778;28;20100;-74
2023/06/25 00:37:57;;;;;;;13.45;12.13;;;;;;;18.12;100.00;101904.03;5025433;28;20025;-65
2023/06/25 00:40:23;;;;;;;13.30;12.10;;;;;;;18.09;100.00;101902.59;5027102;28;20548;-70
2023/06/25 00:42:56;;;;;;;14.35;12.95;;;;;;;18.12;100.00;101902.09;5024965;28;20053;-74
2023/06/25 00:45:24;;;;;;;12.73;11.15;;;;;;;18.08;100.00;101900.94;5017233;28;20064;-73
2023/06/25 00:47:50;;;;;;;13.38;11.98;;;;;;;18.03;100.00;101905.56;5024903;28;20445;-73
2023/06/25 00:50:15;;;;;;;14.75;12.23;;;;;;;17.90;100.00;101892.88;5025401;28;20034;-69
2023/06/25 00:52:41;;;;;;;13.93;12.52;;;;;;;17.90;100.00;101895.66;5022859;28;20080;-70
2023/06/25 00:55:08;;;;;;;14.15;12.15;;;;;;;17.88;100.00;101893.13;5023047;28;20025;-65
2023/06/25 00:57:33;;;;;;;13.45;12.15;;;;;;;17.85;100.00;101890.03;5024398;28;20392;-71
2023/06/25 00:59:59;;;;;;;14.93;13.52;;;;;;;17.86;100.00;101883.38;5023157;28;20104;-69
2023/06/25 01:02:46;;;;;;;15.15;13.57;;;;;;;17.84;100.00;101885.53;5025514;28;20851;-74
2023/06/25 01:05:22;;;;;;;15.88;14.25;;;;;;;17.85;100.00;101879.75;5023220;28;20035;-71
2023/06/25 01:07:50;;;;;;;14.65;13.15;;;;;;;17.83;100.00;101881.09;5026389;28;20030;-72
2023/06/25 01:10:15;;;;;;;15.27;13.77;;;;;;;17.87;100.00;101883.09;5022077;28;20026;-66
2023/06/25 01:12:42;;;;;;;14.65;13.15;;;;;;;17.91;100.00;101880.66;5007800;28;20033;-72
2023/06/25 01:15:11;;;;;;;14.75;13.25;;;;;;;17.84;100.00;101883.63;5012115;28;20033;-72
2023/06/25 01:17:39;;;;;;;15.85;14.23;;;;;;;17.80;100.00;101874.09;5011976;28;20034;-71
2023/06/25 01:20:05;;;;;;;14.57;13.27;;;;;;;17.81;100.00;101877.72;5020792;28;20025;-73
2023/06/25 01:22:32;;;;;;;15.27;13.77;;;;;;;17.85;100.00;101878.91;5012373;28;20053;-70
2023/06/25 01:24:58;;;;;;;14.38;12.60;;;;;;;17.81;100.00;101870.22;5023633;28;20384;-70
2023/06/25 01:27:23;;;;;;;13.55;12.25;;;;;;;17.74;100.00;101875.13;5019194;28;20037;-72
2023/06/25 01:29:50;;;;;;;15.02;13.52;;;;;;;17.68;100.00;101866.91;5025462;28;20112;-71
2023/06/25 01:32:16;;;;;;;15.07;13.60;;;;;;;17.63;100.00;101862.94;5026468;28;20535;-74
2023/06/25 01:34:42;;;;;;;16.63;15.02;;;;;;;17.58;100.00;101862.88;5007135;28;20018;-74
2023/06/25 01:37:07;;;;;;;16.63;15.13;;;;;;;17.61;100.00;101859.59;5016683;28;20536;-66
2023/06/25 01:39:33;;;;;;;17.30;15.60;;;;;;;17.57;100.00;101855.63;5021739;28;20045;-71
2023/06/25 01:41:58;;;;;;;15.55;14.10;;;;;;;17.59;100.00;101853.47;5005616;28;20018;-74
2023/06/25 01:44:29;;;;;;;16.30;14.70;;;;;;;17.56;100.00;101858.69;5006378;28;20053;-66
2023/06/25 01:46:56;;;;;;;16.48;14.88;;;;;;;17.52;100.00;101850.00;5006499;28;20034;-75
2023/06/25 01:49:22;;;;;;;16.58;14.98;;;;;;;17.47;100.00;101844.34;5026917;28;20018;-74
2023/06/25 01:51:48;;;;;;;16.67;15.07;;;;;;;17.47;100.00;101840.75;5024814;28;20396;-74
2023/06/25 01:54:13;;;;;;;16.88;15.13;;;;;;;17.47;100.00;101837.97;5016151;28;20018;-68
2023/06/25 01:56:39;;;;;;;16.63;14.93;;;;;;;17.50;100.00;101838.31;5005333;28;20040;-75
2023/06/25 01:59:04;;;;;;;16.95;15.45;;;;;;;17.45;100.00;101838.22;5013984;28;20025;-74
2023/06/25 02:01:29;;;;;;;17.35;15.75;;;;;;;17.44;100.00;101835.72;5024382;28;20030;-68
2023/06/25 02:03:55;;;;;;;17.08;15.43;;;;;;;17.38;100.00;101826.44;5025931;28;20048;-65
2023/06/25 02:06:21;;;;;;;17.92;16.33;;;;;;;17.37;100.00;101825.59;5014901;28;20034;-71
2023/06/25 02:08:46;;;;;;;18.60;16.75;;;;;;;17.35;100.00;101826.94;5006972;28;20030;-69
2023/06/25 02:11:12;;;;;;;18.42;16.70;;;;;;;17.34;100.00;101825.28;5019915;28;20109;-69
2023/06/25 02:13:37;;;;;;;18.25;16.55;;;;;;;17.35;100.00;101819.47;5026070;28;20376;-66
2023/06/25 02:16:03;;;;;;;18.48;16.77;;;;;;;17.29;100.00;101812.16;5017989;28;20030;-74
2023/06/25 02:18:29;;;;;;;17.45;15.75;;;;;;;17.25;100.00;101815.69;5023781;28;20071;-74
2023/06/25 02:20:54;;;;;;;17.65;16.13;;;;;;;17.28;100.00;101815.16;5026406;28;20032;-74
2023/06/25 02:23:20;;;;;;;17.85;16.15;;;;;;;17.30;100.00;101812.97;5026498;28;20033;-74
2023/06/25 02:25:46;;;;;;;19.35;17.55;;;;;;;17.30;100.00;101807.44;5014202;28;20062;-70
2023/06/25 02:28:11;;;;;;;18.08;16.33;;;;;;;17.24;100.00;101800.94;5018198;28;20030;-74
2023/06/25 02:30:37;;;;;;;19.17;17.38;;;;;;;17.21;100.00;101798.66;5025325;28;20030;-74
2023/06/25 02:33:02;;;;;;;18.33;16.30;;;;;;;17.15;100.00;101794.13;5025082;28;20033;-72
2023/06/25 02:35:27;;;;;;;19.77;17.48;;;;;;;17.10;100.00;101794.88;5009310;28;20073;-72
2023/06/25 02:37:53;;;;;;;18.65;16.95;;;;;;;17.07;100.00;101789.81;5025003;28;20030;-65
2023/06/25 02:40:18;;;;;;;19.17;17.38;;;;;;;17.07;100.00;101787.03;5024295;28;20037;-72
2023/06/25 02:42:44;;;;;;;19.75;17.58;;;;;;;17.08;100.00;101797.06;5026858;28;20034;-71
2023/06/25 02:45:09;;;;;;;15.95;14.38;;;;;;;17.06;100.00;101790.09;5007392;28;20025;-74
2023/06/25 02:47:35;;;;;;;16.20;14.60;;;;;;;17.02;100.00;101784.19;5019152;28;20112;-74
2023/06/25 02:50:00;;;;;;;17.73;16.23;;;;;;;16.98;100.00;101801.59;5024794;28;20030;-73
2023/06/25 02:52:25;;;;;;;18.23;16.50;;;;;;;16.89;100.00;101786.47;5025897;28;20095;-65
2023/06/25 02:54:51;;;;;;;19.10;17.38;;;;;;;16.86;100.00;101785.84;5009442;28;20053;-70
2023/06/25 02:57:16;;;;;;;18.48;16.83;;;;;;;16.84;100.00;101787.19;5006737;28;20068;-74
2023/06/25 02:59:41;;;;;;;18.67;17.02;;;;;;;16.84;100.00;101789.97;5024207;28;20029;-72
2023/06/25 03:02:07;;;;;;;19.50;17.80;;;;;;;16.83;100.00;101782.75;5013553;28;20029;-73
2023/06/25 03:04:32;;;;;;;19.98;18.20;;;;;;;16.80;100.00;101786.00;5028851;28;20036;-69
2023/06/25 03:06:57;;;;;;;19.05;17.35;;;;;;;16.80;100.00;101784.06;5025174;28;20124;-71
2023/06/25 03:09:23;;;;;;;18.98;17.17;;;;;;;16.80;100.00;101780.47;5009422;28;20472;-70
2023/06/25 03:11:48;;;;;;;19.25;17.55;;;;;;;16.85;100.00;101783.34;5009775;28;20101;-74
2023/06/25 03:14:13;;;;;;;18.65;16.83;;;;;;;16.85;100.00;101788.88;5027850;28;20021;-75
2023/06/25 03:16:39;;;;;;;17.98;16.33;;;;;;;16.83;100.00;101786.38;5010629;28;20645;-71
2023/06/25 03:19:04;;;;;;;19.17;17.45;;;;;;;16.90;100.00;101783.41;5008954;28;21007;-74
2023/06/25 03:21:30;;;;;;;17.95;16.30;;;;;;;16.88;100.00;101791.16;5009948;28;20104;-74
2023/06/25 03:23:55;;;;;;;18.67;16.98;;;;;;;16.85;100.00;101780.56;4992259;28;20120;-67
2023/06/25 03:26:20;;;;;;;20.08;18.23;;;;;;;16.84;100.00;101776.09;5008607;28;20030;-71
2023/06/25 03:28:46;;;;;;;19.08;17.48;;;;;;;16.76;100.00;101780.09;5028137;28;20120;-73
2023/06/25 03:31:11;;;;;;;18.40;16.70;;;;;;;16.72;100.00;101773.38;5019197;28;20048;-74
2023/06/25 03:33:36;;;;;;;19.02;17.13;;;;;;;16.70;100.00;101780.25;5009019;28;20453;-74
2023/06/25 03:36:02;;;;;;;19.20;17.45;;;;;;;16.71;100.00;101776.38;5018349;28;20049;-75
2023/06/25 03:38:27;;;;;;;19.70;17.90;;;;;;;16.71;100.00;101776.38;5006261;28;20034;-72
2023/06/25 03:40:52;;;;;;;19.02;17.15;;;;;;;16.72;100.00;101772.53;5008589;28;20074;-74
2023/06/25 03:43:18;;;;;;;17.52;15.85;;;;;;;16.69;100.00;101779.41;5006560;28;20044;-75
2023/06/25 03:45:43;;;;;;;16.65;15.15;;;;;;;16.67;100.00;101772.41;5015474;28;20424;-65
2023/06/25 03:48:08;;;;;;;17.43;15.93;;;;;;;16.60;100.00;101770.63;5015666;28;20073;-69
2023/06/25 03:50:34;;;;;;;17.73;16.10;;;;;;;16.64;100.00;101764.59;5013728;28;20284;-73
2023/06/25 03:53:00;;;;;;;17.58;15.95;;;;;;;16.60;100.00;101767.03;5028763;28;20045;-65
2023/06/25 03:55:26;;;;;;;18.25;16.70;;;;;;;16.64;100.00;101764.59;5007998;28;20067;-65
2023/06/25 03:57:51;;;;;;;18.77;16.98;;;;;;;16.65;100.00;101766.28;5008196;28;20033;-66
2023/06/25 04:00:17;;;;;;;18.17;16.58;;;;;;;16.65;100.00;101764.34;5011216;28;21030;-74
2023/06/25 04:02:42;;;;;;;19.10;17.20;;;;;;;16.65;100.00;101755.19;5025807;28;20029;-75
2023/06/25 04:05:08;;;;;;;17.20;15.70;;;;;;;16.66;100.00;101767.97;5021852;28;20515;-73
2023/06/25 04:07:33;;;;;;;18.92;17.10;;;;;;;16.63;100.00;101768.47;5014182;28;20041;-74
2023/06/25 04:09:58;;;;;;;19.38;17.67;;;;;;;16.65;100.00;101766.28;5026020;28;20069;-70
2023/06/25 04:12:24;;;;;;;18.38;16.67;;;;;;;16.70;100.00;101760.81;5009520;28;20034;-71
2023/06/25 04:14:49;;;;;;;19.75;17.98;;;;;;;16.74;100.00;101767.59;5006677;28;20479;-73
2023/06/25 04:17:14;;;;;;;18.70;16.90;;;;;;;16.77;100.00;101767.91;5021750;28;20030;-74
2023/06/25 04:19:42;;;;;;;20.08;18.10;;;;;;;16.80;100.00;101763.81;5028638;28;20181;-68
2023/06/25 04:22:07;;;;;;;18.53;16.93;;;;;;;16.83;100.00;101774.44;4994885;28;20026;-70
2023/06/25 04:24:32;;;;;;;19.42;17.70;;;;;;;16.83;100.00;101766.09;5027423;28;20030;-74
2023/06/25 04:26:58;;;;;;;19.17;17.40;;;;;;;16.84;100.00;101771.41;5024026;28;20645;-74
2023/06/25 04:29:24;;;;;;;19.95;18.02;;;;;;;16.88;100.00;101771.75;5015935;28;20040;-65
2023/06/25 04:31:49;;;;;;;20.13;18.33;;;;;;;16.89;100.00;101765.09;5014679;28;20043;-74
2023/06/25 04:34:15;;;;;;;19.85;18.15;;;;;;;16.96;100.00;101763.00;5025120;28;20116;-70
2023/06/25 04:36:40;;;;;;;19.13;17.45;;;;;;;16.96;100.00;101768.53;5011932;28;20096;-70
2023/06/25 04:39:06;;;;;;;19.95;18.25;;;;;;;17.02;100.00;101761.13;5007821;28;20049;-73
2023/06/25 04:41:31;;;;;;;20.13;18.33;;;;;;;17.07;100.00;101764.00;5021468;28;20547;-65
2023/06/25 04:43:56;;;;;;;19.15;17.48;;;;;;;17.10;100.00;101764.34;4992082;28;20058;-71
2023/06/25 04:46:22;;;;;;;18.10;16.52;;;;;;;17.11;100.00;101759.63;5016649;28;20100;-74
2023/06/25 04:48:47;;;;;;;17.98;16.38;;;;;;;17.17;100.00;101761.41;5027995;28;20034;-74
2023/06/25 04:51:13;;;;;;;18.17;16.58;;;;;;;17.21;100.00;101765.34;5015842;28;20033;-72
2023/06/25 04:53:39;;;;;;;19.02;17.33;;;;;;;17.26;100.00;101764.59;5007203;28;20022;-74
2023/06/25 04:56:04;;;;;;;20.05;18.23;;;;;;;17.27;100.00;101763.50;5006724;28;20049;-73
2023/06/25 04:58:30;;;;;;;20.63;18.92;;;;;;;17.31;100.00;101762.75;5011125;28;20037;-72
2023/06/25 05:00:55;;;;;;;18.95;17.33;;;;;;;17.35;100.00;101765.88;5026381;28;20025;-65
2023/06/25 05:03:20;;;;;;;20.63;18.77;;;;;;;17.39;100.00;101767.03;5027427;28;20041;-71
2023/06/25 05:05:46;;;;;;;20.05;18.25;;;;;;;17.46;100.00;101761.31;5023514;28;20162;-75
2023/06/25 05:08:11;;;;;;;20.08;18.17;;;;;;;17.54;100.00;101758.09;5026898;28;20446;-74
2023/06/25 05:10:37;;;;;;;19.40;17.75;;;;;;;17.57;100.00;101760.34;5027000;28;20136;-74
2023/06/25 05:13:03;;;;;;;20.20;18.40;;;;;;;17.62;100.00;101766.81;5025162;28;20115;-74
2023/06/25 05:15:29;;;;;;;19.38;17.77;;;;;;;17.66;100.00;101760.78;5002748;28;20032;-74
2023/06/25 05:17:54;;;;;;;19.33;17.77;;;;;;;17.69;100.00;101766.66;5003146;28;20030;-74
2023/06/25 05:20:20;;;;;;;19.90;18.10;;;;;;;17.75;100.00;101764.81;5026478;28;20060;-72
2023/06/25 05:22:45;;;;;;;21.27;19.42;;;;;;;17.80;100.00;101756.56;5026418;28;20116;-74
2023/06/25 05:25:10;;;;;;;20.73;18.92;;;;;;;17.83;100.00;101762.44;5009182;28;20040;-72
2023/06/25 05:27:36;;;;;;;21.42;19.52;;;;;;;17.87;100.00;101763.59;5007709;28;20030;-72
2023/06/25 05:30:01;;;;;;;20.05;18.35;;;;;;;17.91;100.00;101761.16;5006032;28;20044;-67
2023/06/25 05:32:26;;;;;;;20.50;18.80;;;;;;;17.93;100.00;101760.88;5018088;28;20488;-68
2023/06/25 05:34:52;;;;;;;20.13;18.33;;;;;;;17.97;100.00;101762.91;5015901;28;20026;-68
2023/06/25 05:37:17;;;;;;;20.15;18.35;;;;;;;18.01;100.00;101758.50;5025456;28;20124;-74
2023/06/25 05:39:42;;;;;;;20.08;18.20;;;;;;;18.08;100.00;101766.66;5026829;28;20500;-74
2023/06/25 05:42:08;;;;;;;18.95;17.25;;;;;;;18.17;100.00;101767.03;5021109;28;20033;-72
2023/06/25 05:44:33;;;;;;;19.48;17.67;;;;;;;18.24;100.00;101762.94;5019231;28;20031;-74
2023/06/25 05:46:58;;;;;;;19.60;17.90;;;;;;;18.32;100.00;101753.31;5021593;28;20464;-74
2023/06/25 05:49:23;;;;;;;19.63;17.80;;;;;;;18.42;100.00;101756.22;5025617;28;20433;-70
2023/06/25 05:51:50;;;;;;;18.35;16.65;;;;;;;18.50;100.00;101749.34;5023494;28;20025;-71
2023/06/25 05:54:15;;;;;;;18.30;16.63;;;;;;;18.59;100.00;101748.59;5005475;28;20029;-66
2023/06/25 05:56:41;;;;;;;17.98;16.45;;;;;;;18.70;100.00;101752.34;5019542;28;20387;-72
2023/06/25 05:59:06;;;;;;;17.98;16.48;;;;;;;18.81;100.00;101750.53;5025566;28;20035;-74
2023/06/25 06:01:31;;;;;;;18.35;16.73;;;;;;;18.80;100.00;101748.84;5024784;28;20029;-75
2023/06/25 06:03:57;;;;;;;19.13;17.52;;;;;;;18.88;100.00;101746.41;5009725;28;20028;-74
2023/06/25 06:06:24;;;;;;;18.00;16.40;;;;;;;18.98;100.00;101740.09;5026612;28;20036;-75
2023/06/25 06:08:49;;;;;;;18.02;16.35;;;;;;;19.03;100.00;101739.31;5024728;28;20718;-74
2023/06/25 06:11:15;;;;;;;17.90;16.30;;;;;;;19.10;100.00;101737.13;5025670;28;20042;-75
2023/06/25 06:13:40;;;;;;;17.65;16.00;;;;;;;19.18;100.00;101739.44;5014324;28;20124;-71
2023/06/25 06:16:05;;;;;;;17.27;15.60;;;;;;;19.34;100.00;101743.16;5024082;28;20025;-70
2023/06/25 06:18:30;;;;;;;16.77;15.25;;;;;;;19.41;100.00;101743.75;5025636;28;20037;-69
2023/06/25 06:20:56;;;;;;;16.77;15.27;;;;;;;19.52;99.25;101747.47;5023888;28;20037;-65
2023/06/25 06:23:21;;;;;;;15.80;14.40;;;;;;;19.60;99.13;101741.41;5012725;28;20532;-73
2023/06/25 06:25:46;;;;;;;16.73;15.25;;;;;;;19.70;97.83;101742.31;5020241;28;20080;-74
2023/06/25 06:28:12;;;;;;;17.35;15.65;;;;;;;19.80;97.85;101743.47;5013655;28;20029;-75
2023/06/25 06:30:37;;;;;;;16.58;14.98;;;;;;;19.78;100.00;101749.34;5013415;28;20083;-75
2023/06/25 06:33:02;;;;;;;16.42;14.82;;;;;;;19.85;100.00;101744.34;5019785;28;20071;-75
2023/06/25 06:35:28;;;;;;;16.55;14.95;;;;;;;19.93;100.00;101746.63;5024569;28;20029;-73
2023/06/25 06:37:53;;;;;;;16.48;14.90;;;;;;;20.00;100.00;101739.97;5011942;28;20034;-72
2023/06/25 06:40:18;;;;;;;16.15;14.70;;;;;;;20.05;100.00;101738.03;5010004;28;20121;-69
2023/06/25 06:42:44;;;;;;;17.58;15.93;;;;;;;20.15;100.00;101738.06;5014697;28;20031;-73
2023/06/25 06:45:09;;;;;;;15.70;14.30;;;;;;;20.26;100.00;101738.09;5024350;28;20109;-73
2023/06/25 06:47:35;;;;;;;15.98;14.57;;;;;;;20.35;97.83;101733.66;5009474;28;20029;-71
2023/06/25 06:50:00;;;;;;;15.15;13.63;;;;;;;20.48;91.40;101724.81;5010688;28;20061;-74
2023/06/25 06:52:26;;;;;;;15.63;14.23;;;;;;;20.60;94.74;101733.75;5016622;28;20056;-65
2023/06/25 06:54:51;;;;;;;15.98;14.48;;;;;;;20.67;95.46;101728.72;5013967;28;20052;-74
2023/06/25 06:57:17;;;;;;;15.18;13.63;;;;;;;20.81;91.47;101728.19;5028730;28;20116;-65
2023/06/25 06:59:44;;;;;;;14.70;13.38;;;;;;;20.92;90.11;101738.25;5029779;28;20026;-69
2023/06/25 07:02:10;;;;;;;15.98;14.38;;;;;;;21.00;91.08;101734.91;5000421;28;20018;-68
2023/06/25 07:04:36;;;;;;;15.02;13.52;;;;;;;21.12;91.19;101735.47;5009471;28;20034;-65
2023/06/25 07:07:01;;;;;;;14.25;12.85;;;;;;;21.24;88.20;101732.41;5008371;28;20415;-70
2023/06/25 07:09:26;;;;;;;14.70;13.38;;;;;;;21.35;81.96;101722.06;5029046;28;20041;-71
2023/06/25 07:11:53;;;;;;;16.05;14.43;;;;;;;21.48;81.27;101724.28;5027248;28;20109;-73
2023/06/25 07:14:18;;;;;;;15.05;13.65;;;;;;;21.58;85.05;101720.63;5008973;28;20034;-73
2023/06/25 07:16:44;;;;;;;15.45;13.95;;;;;;;21.68;84.90;101723.38;5018013;28;20018;-73
2023/06/25 07:19:10;;;;;;;16.00;14.50;;;;;;;21.76;83.22;101718.06;5023377;28;20022;-74
2023/06/25 07:21:35;;;;;;;15.32;13.93;;;;;;;21.87;82.59;101727.25;5021220;28;20034;-74
2023/06/25 07:24:00;;;;;;;16.15;14.70;;;;;;;21.96;77.86;101727.50;5028595;28;20033;-68
2023/06/25 07:26:27;;;;;;;15.73;14.23;;;;;;;22.08;82.32;101727.16;5014015;28;20460;-69
2023/06/25 07:28:52;;;;;;;16.00;14.60;;;;;;;22.17;87.06;101725.47;5009548;28;20033;-72
2023/06/25 07:31:17;;;;;;;16.45;14.95;;;;;;;22.28;79.08;101725.13;4989692;28;20047;-73
2023/06/25 07:33:43;;;;;;;15.50;14.20;;;;;;;22.42;78.81;101716.09;5007273;28;20026;-69
2023/06/25 07:36:08;;;;;;;14.73;13.48;;;;;;;22.54;76.17;101722.16;5009545;28;20084;-68
2023/06/25 07:38:33;;;;;;;15.35;13.95;;;;;;;22.62;78.88;101718.78;5009846;28;20583;-69
2023/06/25 07:40:59;;;;;;;15.20;13.80;;;;;;;22.76;80.98;101716.16;5009049;28;20084;-74
2023/06/25 07:43:24;;;;;;;14.90;13.52;;;;;;;22.85;75.22;101716.34;5007019;28;20068;-66
2023/06/25 07:45:49;;;;;;;13.68;12.38;;;;;;;23.00;74.45;101713.44;5008677;28;20721;-74
2023/06/25 07:48:15;;;;;;;13.45;12.18;;;;;;;23.15;73.63;101718.91;5009634;28;20026;-75
2023/06/25 07:50:40;;;;;;;14.30;12.80;;;;;;;23.24;75.73;101714.34;5008986;28;20676;-73
2023/06/25 07:53:05;;;;;;;13.32;12.07;;;;;;;23.30;73.96;101704.75;5009217;28;20477;-71
2023/06/25 07:55:38;;;;;;;12.23;11.13;;;;;;;23.41;75.78;101701.84;5008338;28;20105;-69
2023/06/25 07:58:04;;;;;;;11.70;10.50;;;;;;;23.50;76.18;101709.31;5008530;28;20430;-71
2023/06/25 08:00:29;;;;;;;8.65;7.32;;;;;;;23.64;68.07;101701.06;5005258;28;20223;-74
2023/06/25 08:02:54;;;;;;;9.48;6.68;;;;;;;23.74;65.04;101695.34;5008119;28;20030;-67
2023/06/25 08:05:20;;;;;;;8.88;6.57;;;;;;;23.85;64.38;101703.63;5008420;28;20026;-74
2023/06/25 08:07:45;;;;;;;8.33;6.10;;;;;;;23.96;66.17;101707.97;5008949;28;20392;-70
2023/06/25 08:10:10;;;;;;;7.65;6.22;;;;;;;24.01;65.36;101707.91;5008501;28;20283;-70
2023/06/25 08:12:36;;;;;;;9.45;7.18;;;;;;;24.03;63.62;101697.25;5007416;28;20030;-72
2023/06/25 08:15:02;;;;;;;8.40;6.90;;;;;;;24.14;65.18;101700.75;5007884;28;20037;-73
2023/06/25 08:17:27;;;;;;;7.97;6.30;;;;;;;24.17;63.02;101698.16;5007719;28;20453;-72
2023/06/25 08:19:52;;;;;;;8.20;6.60;;;;;;;24.23;63.90;101698.91;5008948;28;20117;-75
2023/06/25 08:22:18;;;;;;;7.10;6.05;;;;;;;24.34;64.13;101700.44;5008571;28;20023;-75
2023/06/25 08:24:43;;;;;;;8.32;6.10;;;;;;;24.44;65.70;101703.13;5007234;28;20033;-72
2023/06/25 08:27:08;;;;;;;7.97;6.45;;;;;;;24.50;64.25;101696.31;5008422;28;20030;-75
2023/06/25 08:29:34;;;;;;;7.80;6.60;;;;;;;24.48;62.87;101692.97;5007827;28;20065;-73
2023/06/25 08:31:59;;;;;;;8.63;7.25;;;;;;;24.52;62.39;101690.38;5012139;28;20365;-69
2023/06/25 08:34:24;;;;;;;8.75;6.60;;;;;;;24.61;61.30;101685.75;5006556;28;20030;-72
2023/06/25 08:36:50;;;;;;;10.18;6.68;;;;;;;24.70;62.81;101686.72;5008367;28;20022;-74
2023/06/25 08:39:15;;;;;;;7.05;5.55;;;;;;;24.89;67.61;101686.69;5007769;28;20462;-75
2023/06/25 08:41:40;;;;;;;7.20;6.20;;;;;;;24.92;62.04;101685.22;5006361;28;20034;-74
2023/06/25 08:44:05;;;;;;;7.70;6.38;;;;;;;24.94;61.17;101685.75;5007665;28;20123;-74
2023/06/25 08:46:33;;;;;;;10.30;6.45;;;;;;;24.96;61.18;101689.94;5006436;28;20053;-75
2023/06/25 08:48:59;;;;;;;7.68;6.05;;;;;;;25.02;62.99;101676.63;5022070;28;20028;-72
2023/06/25 08:51:25;;;;;;;6.90;5.40;;;;;;;25.18;64.41;101674.41;5013438;28;20026;-75
2023/06/25 08:53:50;;;;;;;6.78;5.30;;;;;;;25.23;61.92;101675.13;5007640;28;20064;-65
2023/06/25 08:56:17;;;;;;;7.57;5.82;;;;;;;25.34;61.94;101671.00;5007513;28;20382;-76
2023/06/25 08:58:43;;;;;;;6.75;4.78;;;;;;;25.50;59.89;101681.97;5007683;28;20034;-74
2023/06/25 09:01:10;;;;;;;6.95;5.28;;;;;;;25.60;58.97;101671.34;5004613;28;20026;-73
2023/06/25 09:03:35;;;;;;;10.55;5.25;;;;;;;25.73;61.74;101682.88;5007280;28;20385;-74
2023/06/25 09:06:00;;;;;;;7.15;4.97;;;;;;;25.86;63.75;101668.84;5007980;28;20045;-71
2023/06/25 09:08:27;;;;;;;7.65;4.68;;;;;;;26.06;65.57;101678.00;5008431;28;20065;-65
2023/06/25 09:10:54;;;;;;;6.70;4.60;;;;;;;26.13;58.04;101667.13;5007124;28;20030;-72
2023/06/25 09:13:21;;;;;;;6.38;4.72;;;;;;;26.21;59.70;101671.19;5005689;28;20292;-72
2023/06/25 09:15:46;;;;;;;7.28;4.40;;;;;;;26.35;59.62;101671.97;5009203;28;20025;-72
2023/06/25 09:18:12;;;;;;;6.70;5.15;;;;;;;26.38;57.43;101662.91;5024751;28;20372;-74
2023/06/25 09:20:39;;;;;;;6.00;4.50;;;;;;;26.59;62.46;101655.66;5022609;28;20021;-73
2023/06/25 09:23:05;;;;;;;4.90;4.07;;;;;;;26.73;55.82;101661.22;5021500;28;20034;-74
2023/06/25 09:25:31;;;;;;;5.72;4.20;;;;;;;26.83;55.08;101660.13;5007110;28;20029;-76
2023/06/25 09:27:59;;;;;;;5.93;4.20;;;;;;;27.07;56.95;101657.84;5006942;28;20355;-67
2023/06/25 09:30:25;;;;;;;5.18;3.97;;;;;;;27.19;54.11;101653.59;5006811;28;20033;-74
2023/06/25 09:32:54;;;;;;;5.78;4.07;;;;;;;27.46;53.22;101659.00;5021980;28;20033;-76
2023/06/25 09:35:25;;;;;;;5.10;3.88;;;;;;;27.85;52.38;101658.19;5016927;28;20029;-75
2023/06/25 09:37:51;;;;;;;5.88;3.95;;;;;;;28.16;52.61;101654.44;5006317;28;20033;-68
2023/06/25 09:40:16;;;;;;;5.78;3.65;;;;;;;28.33;49.63;101656.41;5017259;28;20080;-70
2023/06/25 09:42:47;;;;;;;5.57;3.83;;;;;;;29.14;48.11;101648.06;5026450;28;20053;-71
2023/06/25 09:45:16;;;;;;;6.18;3.33;;;;;;;30.68;49.30;101651.50;5021841;28;20076;-73
2023/06/25 09:47:43;;;;;;;4.45;3.40;;;;;;;31.95;42.72;101657.22;5000535;28;20128;-66
2023/06/25 09:50:22;;;;;;;4.88;3.40;;;;;;;33.48;38.32;101642.97;4994855;28;20051;-72
2023/06/25 09:52:53;;;;;;;4.95;3.10;;;;;;;34.76;36.10;101651.66;4999043;28;20091;-66
2023/06/25 09:55:20;;;;;;;4.95;3.10;;;;;;;35.95;31.09;101644.03;4998674;28;20022;-69
2023/06/25 09:57:47;;;;;;;4.68;3.15;;;;;;;36.83;30.76;101643.56;5007908;28;20065;-69
2023/06/25 10:00:13;;;;;;;4.00;2.97;;;;;;;37.70;28.77;101645.25;5002334;28;20045;-77
2023/06/25 10:02:39;;;;;;;4.00;3.08;;;;;;;38.08;27.75;101641.84;5003768;28;20038;-71
2023/06/25 10:05:04;;;;;;;5.07;3.10;;;;;;;38.34;26.63;101635.03;5000092;28;20025;-72
2023/06/25 10:07:30;;;;;;;4.53;2.80;;;;;;;38.60;27.72;101635.97;5001003;28;20089;-73
2023/06/25 10:09:56;;;;;;;5.00;3.45;;;;;;;38.67;26.02;101636.78;5012850;28;20117;-65
2023/06/25 10:12:21;;;;;;;4.38;3.15;;;;;;;39.02;27.98;101634.44;5006548;28;20113;-74
2023/06/25 10:14:47;;;;;;;4.97;2.80;;;;;;;39.88;27.82;101630.38;5012019;28;20068;-77
2023/06/25 10:17:14;;;;;;;3.78;3.00;;;;;;;39.93;25.24;101627.06;5006642;28;20469;-69
2023/06/25 10:19:51;;;;;;;3.72;2.90;;;;;;;39.75;26.15;101623.44;5008485;28;20519;-72
2023/06/25 10:22:21;;;;;;;;;;;;;;;40.01;27.02;101618.44;5001856;28;20050;-75
2023/06/25 10:24:51;;;;;;;4.80;3.10;;;;;;;39.22;25.60;101618.50;5009824;28;20012;-75
2023/06/25 10:27:42;;;;;;;4.80;3.30;;;;;;;40.02;26.51;101603.63;5005928;28;20366;-72
2023/06/25 10:30:16;;;;;;;3.80;3.00;;;;;;;39.85;25.87;101613.97;5003147;28;20119;-76
2023/06/25 10:32:42;;;;;;;4.25;2.83;;;;;;;39.31;24.65;101609.47;5005493;28;20073;-70
2023/06/25 10:35:07;;;;;;;3.50;2.90;;;;;;;38.89;24.85;101596.69;5006750;28;20428;-73
2023/06/25 10:37:34;;;;;;;4.82;3.35;;;;;;;38.25;26.77;101600.13;5009461;28;20049;-75
2023/06/25 10:40:10;;;;;;;4.57;3.08;;;;;;;37.69;27.75;101604.28;4985996;28;20043;-75
2023/06/25 10:42:36;;;;;;;4.18;2.95;;;;;;;36.34;27.49;101597.97;4986847;28;20113;-74
2023/06/25 10:45:03;;;;;;;3.85;2.70;;;;;;;35.36;31.05;101594.84;4988413;28;20153;-73
2023/06/25 10:47:29;;;;;;;5.30;3.20;;;;;;;34.25;31.65;101591.06;4977135;28;20756;-74
2023/06/25 10:49:54;;;;;;;4.22;3.03;;;;;;;33.44;32.54;101585.09;4990075;28;20285;-71
2023/06/25 10:52:20;;;;;;;3.92;3.25;;;;;;;33.01;35.34;101581.97;4988959;28;20037;-70
2023/06/25 10:54:45;;;;;;;4.93;2.90;;;;;;;32.91;36.39;101582.50;4988768;28;20465;-76
2023/06/25 10:57:14;;;;;;;4.53;3.30;;;;;;;32.71;34.64;101587.22;4989445;28;20488;-74
2023/06/25 10:59:43;;;;;;;4.30;2.95;;;;;;;32.72;36.39;101577.50;4996073;28;20156;-70
2023/06/25 11:02:17;;;;;;;4.55;3.28;;;;;;;32.65;35.01;101573.63;5007828;28;20105;-73
2023/06/25 11:04:50;;;;;;;3.88;3.15;;;;;;;32.50;34.21;101584.59;4989474;28;20042;-74